Terminal Aerodrome Forecast
Issued by NWS

Home | Current Version | Previous Version | Text Only | Print | Product List | Glossary On
Versions: 1 2 3 4 5 6 7 8 9 10 11 12 13 14
000
FTUS45 KTFX 182300
TAFBZN
TAF
KBZN 182333Z 1900/1924 20007KT P6SM SCT070 BKN100
      TEMPO 1900/1902 -SHRA BKN070
     FM190200 21007KT P6SM SCT120
     FM192000 28008KT P6SM SCT080 BKN150=

USA.gov is the U.S. government's official web portal to all federal, state and local government web resources and services.